^^
Grace C. Lehan Memorial Weather Station Historical Data
Daily Summary for August 08, 2022 Units:  Metric    English   Both
Daily Weekly Monthly Yearly
  High: Low: Average:
Temperature: 35.7 °C 24.3 °C 27.8 °C
Dew Point: 26.1 °C 22.2 °C 23.7 °C
Humidity: 89% 53.6% 79%
Wind Speed: 4.7km/h 0km/h 0.3km/h
Wind Gust: 24.1km/h - -
Wind- - WSW
Pressure: 1015.8 hPa 1012.4 hPa -
Precipitation: 1.52 mm    
 
 
Tabular Data for August 08, 2022
Time Temperature Dew Point Pressure Wind Wind Speed Wind Gust Humidity Rainfall Rate (Hourly) solar
00:00 25.8 °C 22.7 °C 1015.8 hPa Calm     83% 0 mm 0 W/m2
00:09 25.7 °C 22.8 °C 1015.8 hPa Calm     83.8% 0 mm 0 W/m2
00:14 25.7 °C 22.8 °C 1015.8 hPa Calm     84% 0 mm 0 W/m2
00:19 25.7 °C 22.7 °C 1015.8 hPa Calm     84% 0 mm 0 W/m2
00:24 25.6 °C 22.7 °C 1015.8 hPa Calm     84% 0 mm 0 W/m2
00:29 25.6 °C 22.8 °C 1015.8 hPa Calm     84.8% 0 mm 0 W/m2
00:34 25.5 °C 22.8 °C 1015.8 hPa Calm     85% 0 mm 0 W/m2
00:39 25.5 °C 22.8 °C 1015.8 hPa Calm     85% 0 mm 0 W/m2
00:44 25.5 °C 22.8 °C 1015.8 hPa Calm     85% 0 mm 0 W/m2
00:49 25.4 °C 22.9 °C 1015.8 hPa Calm     85.9% 0 mm 0 W/m2
00:54 25.4 °C 22.9 °C 1015.8 hPa Calm     86% 0 mm 0 W/m2
00:59 25.4 °C 22.9 °C 1015.8 hPa Calm     86% 0 mm 0 W/m2
01:04 25.4 °C 22.9 °C 1015.8 hPa Calm     86% 0 mm 0 W/m2
01:09 25.3 °C 22.8 °C 1015.8 hPa Calm     86% 0 mm 0 W/m2
01:14 25.3 °C 22.8 °C 1015.8 hPa Calm     86.1% 0 mm 0 W/m2
01:19 25.3 °C 22.9 °C 1015.8 hPa Calm     87% 0 mm 0 W/m2
01:24 25.3 °C 22.9 °C 1015.8 hPa Calm     87% 0 mm 0 W/m2
01:29 25.2 °C 22.9 °C 1015.8 hPa Calm   1.6 km/h 87% 0 mm 0 W/m2
01:34 25.2 °C 22.9 °C 1015.8 hPa Calm   1.6 km/h 87% 0 mm 0 W/m2
01:39 25.2 °C 22.9 °C 1015.5 hPa Calm     87% 0 mm 0 W/m2
01:44 25.3 °C 22.9 °C 1015.8 hPa Calm     87% 0 mm 0 W/m2
01:49 25.3 °C 23 °C 1015.8 hPa Calm     87% 0 mm 0 W/m2
01:54 25.3 °C 23.1 °C 1015.5 hPa Calm     87% 0 mm 0 W/m2
01:59 25.4 °C 23.1 °C 1015.5 hPa Calm     87% 0 mm 0 W/m2
02:04 25.4 °C 23.1 °C 1015.1 hPa Calm     86.8% 0 mm 0 W/m2
02:09 25.4 °C 22.9 °C 1015.1 hPa Calm     86% 0 mm 0 W/m2
02:14 25.4 °C 22.9 °C 1015.1 hPa Calm     86% 0 mm 0 W/m2
02:19 25.5 °C 22.9 °C 1015.1 hPa Calm     86% 0 mm 0 W/m2
02:24 25.4 °C 22.9 °C 1015.1 hPa Calm     86% 0 mm 0 W/m2
02:29 25.4 °C 22.9 °C 1015.5 hPa Calm     86% 0 mm 0 W/m2
02:34 25.4 °C 22.9 °C 1015.1 hPa Calm     86% 0 mm 0 W/m2
02:39 25.4 °C 22.9 °C 1015.1 hPa Calm     86% 0 mm 0 W/m2
02:44 25.4 °C 22.9 °C 1015.1 hPa Calm     86% 0 mm 0 W/m2
02:49 25.4 °C 22.8 °C 1015.1 hPa Calm     86% 0 mm 0 W/m2
02:54 25.3 °C 22.8 °C 1015.1 hPa Calm     86% 0 mm 0 W/m2
02:59 25.3 °C 22.8 °C 1015.1 hPa Calm     86% 0 mm 0 W/m2
03:04 25.3 °C 22.8 °C 1015.1 hPa Calm     86% 0 mm 0 W/m2
03:09 25.3 °C 22.9 °C 1015.1 hPa Calm     87% 0 mm 0 W/m2
03:14 25.2 °C 22.8 °C 1015.1 hPa Calm     86.4% 0 mm 0 W/m2
03:19 25.2 °C 22.8 °C 1015.1 hPa Calm     86.7% 0 mm 0 W/m2
03:24 25.2 °C 22.8 °C 1015.1 hPa Calm     87% 0 mm 0 W/m2
03:29 25.1 °C 22.8 °C 1014.8 hPa Calm     87% 0 mm 0 W/m2
03:34 25.1 °C 22.8 °C 1014.8 hPa Calm     87% 0 mm 0 W/m2
03:39 25.1 °C 22.8 °C 1014.8 hPa Calm     87% 0 mm 0 W/m2
03:44 25.1 °C 22.7 °C 1014.8 hPa Calm     87% 0 mm 0 W/m2
03:49 25 °C 22.7 °C 1015.1 hPa Calm     87% 0 mm 0 W/m2
03:54 24.9 °C 22.7 °C 1015.1 hPa Calm     87% 0 mm 0 W/m2
03:59 24.9 °C 22.6 °C 1014.8 hPa Calm     87% 0 mm 0 W/m2
04:00 24.9 °C 22.6 °C 1014.8 hPa Calm     87% 0 mm 0 W/m2
04:09 24.8 °C 22.7 °C 1014.8 hPa Calm     88% 0 mm 0 W/m2
04:14 24.8 °C 22.7 °C 1014.8 hPa Calm     88% 0 mm 0 W/m2
04:19 24.8 °C 22.7 °C 1014.8 hPa Calm     88% 0 mm 0 W/m2
04:24 24.7 °C 22.6 °C 1014.8 hPa Calm     88% 0 mm 0 W/m2
04:29 24.7 °C 22.6 °C 1014.8 hPa WSW 0.2 km/h 3.2 km/h 88% 0 mm 0 W/m2
04:34 24.7 °C 22.6 °C 1014.8 hPa Calm   3.2 km/h 88% 0 mm 0 W/m2
04:39 24.7 °C 22.6 °C 1014.8 hPa Calm     88% 0 mm 0 W/m2
04:44 24.7 °C 22.6 °C 1014.8 hPa Calm   1.6 km/h 88% 0 mm 0 W/m2
04:49 24.7 °C 22.6 °C 1014.8 hPa WSW 0.2 km/h 3.2 km/h 88% 0 mm 0 W/m2
04:54 24.7 °C 22.6 °C 1014.8 hPa Calm   3.2 km/h 88% 0 mm 0 W/m2
04:59 24.7 °C 22.6 °C 1014.8 hPa Calm   3.2 km/h 87.9% 0 mm 0 W/m2
05:04 24.7 °C 22.4 °C 1014.8 hPa Calm   3.2 km/h 87% 0 mm 0 W/m2
05:09 24.7 °C 22.4 °C 1014.8 hPa Calm     87% 0 mm 0 W/m2
05:14 24.7 °C 22.3 °C 1014.8 hPa Calm     87% 0 mm 0 W/m2
05:19 24.6 °C 22.3 °C 1014.8 hPa Calm     87% 0 mm 0 W/m2
05:24 24.6 °C 22.3 °C 1014.8 hPa Calm     87% 0 mm 0 W/m2
05:29 24.6 °C 22.2 °C 1014.8 hPa Calm     87% 0 mm 0 W/m2
05:34 24.5 °C 22.2 °C 1014.8 hPa Calm     87% 0 mm 0 W/m2
05:39 24.5 °C 22.2 °C 1014.8 hPa Calm     87% 0 mm 0 W/m2
05:44 24.4 °C 22.3 °C 1014.8 hPa Calm     87.6% 0 mm 0 W/m2
05:49 24.4 °C 22.3 °C 1014.8 hPa Calm     88% 0 mm 0 W/m2
05:54 24.4 °C 22.3 °C 1014.8 hPa Calm     88% 0 mm 0 W/m2
05:59 24.3 °C 22.2 °C 1014.8 hPa Calm     88% 0 mm 5 W/m2
06:04 24.3 °C 22.2 °C 1014.8 hPa Calm     88% 0 mm 7 W/m2
06:09 24.3 °C 22.3 °C 1014.8 hPa Calm     88.5% 0 mm 11 W/m2
06:14 24.3 °C 22.3 °C 1014.8 hPa Calm     89% 0 mm 12 W/m2
06:19 24.3 °C 22.3 °C 1015.1 hPa Calm     89% 0 mm 18 W/m2
06:24 24.3 °C 22.4 °C 1015.1 hPa Calm     89% 0 mm 25 W/m2
06:29 24.3 °C 22.4 °C 1015.1 hPa Calm     89% 0 mm 30 W/m2
06:34 24.4 °C 22.5 °C 1015.1 hPa Calm     89% 0 mm 37 W/m2
06:39 24.4 °C 22.6 °C 1015.1 hPa Calm     89% 0 mm 44 W/m2
06:44 24.6 °C 22.6 °C 1015.1 hPa Calm     89% 0 mm 53 W/m2
06:49 24.7 °C 22.7 °C 1015.1 hPa Calm     89% 0 mm 62 W/m2
06:54 24.8 °C 22.8 °C 1015.1 hPa Calm   1.6 km/h 88.6% 0 mm 100 W/m2
06:59 25.1 °C 23 °C 1015.1 hPa Calm   1.6 km/h 88% 0 mm 160 W/m2
07:04 25.4 °C 23.2 °C 1015.1 hPa Calm   1.6 km/h 87.4% 0 mm 206 W/m2
07:09 25.8 °C 23.3 °C 1015.1 hPa Calm     86% 0 mm 216 W/m2
07:14 26.3 °C 23.6 °C 1015.1 hPa Calm     85% 0 mm 188 W/m2
07:19 26.8 °C 23.7 °C 1015.1 hPa Calm     83.4% 0 mm 204 W/m2
07:24 27.3 °C 23.8 °C 1015.1 hPa Calm     81.5% 0 mm 218 W/m2
07:29 27.7 °C 23.9 °C 1015.1 hPa Calm     79.5% 0 mm 232 W/m2
07:34 28.1 °C 24.1 °C 1015.1 hPa Calm     78.8% 0 mm 251 W/m2
07:39 28.5 °C 24.2 °C 1014.8 hPa Calm     77.3% 0 mm 267 W/m2
07:44 28.8 °C 24.2 °C 1014.8 hPa Calm     76.2% 0 mm 283 W/m2
07:49 29.2 °C 24.5 °C 1015.1 hPa Calm     75.8% 0 mm 301 W/m2
07:54 29.5 °C 24.6 °C 1014.8 hPa WSW 0.2 km/h 3.2 km/h 74.9% 0 mm 318 W/m2
07:59 29.7 °C 24.6 °C 1014.8 hPa WSW 0.2 km/h 3.2 km/h 74% 0 mm 329 W/m2
08:00 29.8 °C 24.7 °C 1014.8 hPa WSW 3.2 km/h 3.2 km/h 74% 0 mm 329 W/m2
08:09 30.1 °C 24.6 °C 1015.1 hPa WSW 0.5 km/h 6.4 km/h 72.3% 0 mm 362 W/m2
08:14 30.2 °C 24.6 °C 1015.1 hPa WSW 0.5 km/h 6.4 km/h 72.3% 0 mm 378 W/m2
08:19 30.2 °C 24.7 °C 1014.8 hPa WSW 1.1 km/h 8 km/h 72.5% 0 mm 401 W/m2
08:24 30.2 °C 24.7 °C 1014.8 hPa WSW 0.3 km/h 8 km/h 72.5% 0 mm 425 W/m2
08:29 30.3 °C 24.9 °C 1014.8 hPa WSW 0.2 km/h 8 km/h 72.6% 0 mm 432 W/m2
08:34 30.6 °C 25.2 °C 1014.8 hPa WSW 0.5 km/h 8 km/h 72.9% 0 mm 445 W/m2
08:39 30.9 °C 25.2 °C 1014.8 hPa WSW 0.2 km/h 4.8 km/h 71.8% 0 mm 461 W/m2
08:44 31.2 °C 25.2 °C 1014.8 hPa WSW 0.2 km/h 4.8 km/h 70.5% 0 mm 475 W/m2
08:49 31.3 °C 25.1 °C 1014.8 hPa WSW 0.3 km/h 4.8 km/h 69.7% 0 mm 487 W/m2
08:54 31.6 °C 25.3 °C 1014.4 hPa West 1.1 km/h 8 km/h 69.7% 0 mm 497 W/m2
08:59 31.7 °C 25.3 °C 1014.4 hPa WSW 0.2 km/h 8 km/h 69% 0 mm 515 W/m2
09:04 31.8 °C 25.3 °C 1014.4 hPa WSW 1 km/h 8 km/h 68.6% 0 mm 526 W/m2
09:09 31.9 °C 25.4 °C 1014.4 hPa SW 0.8 km/h 4.8 km/h 68.6% 0 mm 541 W/m2
09:14 32.2 °C 25.4 °C 1014.1 hPa WSW 1.1 km/h 6.4 km/h 67.7% 0 mm 554 W/m2
09:19 32.3 °C 25.4 °C 1014.1 hPa WSW 1.1 km/h 9.7 km/h 67% 0 mm 573 W/m2
09:30 32.7 °C 25.8 °C 1014.1 hPa WSW 1.6 km/h 11.3 km/h 67% 0 mm 558 W/m2
10:00 33.2 °C 25.5 °C 1013.8 hPa WSW 1.6 km/h 17.7 km/h 64% 0 mm 639 W/m2
10:30 34.3 °C 26 °C 1013.8 hPa Calm   11.3 km/h 62% 0 mm 706 W/m2
11:30 35 °C 26.1 °C 1013.4 hPa Calm   9.7 km/h 60% 0 mm 755 W/m2
12:04 34.2 °C 25.8 °C 1013.4 hPa Calm     61.7% 0 mm 1037 W/m2
12:09 34.3 °C 25.4 °C 1013.4 hPa WSW 1 km/h 6.4 km/h 60.2% 0 mm 1021 W/m2
12:14 34.3 °C 25.3 °C 1013.4 hPa WSW 2.6 km/h 9.7 km/h 59.8% 0 mm 1028 W/m2
12:19 34.2 °C 25.4 °C 1013.4 hPa WSW 1.4 km/h 9.7 km/h 60.3% 0 mm 1028 W/m2
12:24 34.3 °C 25.3 °C 1013.1 hPa SW 4.5 km/h 17.7 km/h 59.5% 0 mm 953 W/m2
12:29 34.5 °C 25.4 °C 1013.1 hPa WSW 1.9 km/h 17.7 km/h 59.3% 0 mm 979 W/m2
12:34 34.7 °C 25.3 °C 1013.1 hPa SSW 1.3 km/h 17.7 km/h 58.4% 0 mm 1044 W/m2
12:39 34.7 °C 24.9 °C 1012.8 hPa SW 1 km/h 8 km/h 56.9% 0 mm 1044 W/m2
12:44 34.7 °C 25 °C 1012.8 hPa SW 2.4 km/h 11.3 km/h 57.3% 0 mm 1000 W/m2
12:49 34.8 °C 24.9 °C 1012.8 hPa WSW 0.8 km/h 11.3 km/h 56.6% 0 mm 1009 W/m2
12:54 35.1 °C 25.3 °C 1012.8 hPa WSW 0.3 km/h 11.3 km/h 56.9% 0 mm 998 W/m2
12:59 35.3 °C 25.3 °C 1012.8 hPa SSW 1.1 km/h 11.3 km/h 56.3% 0 mm 983 W/m2
13:04 35.4 °C 25.1 °C 1012.8 hPa SW 0.6 km/h 11.3 km/h 55.3% 0 mm 977 W/m2
13:09 35.5 °C 25.4 °C 1012.4 hPa West 1.6 km/h 11.3 km/h 56.1% 0 mm 1065 W/m2
13:14 35.7 °C 25.5 °C 1012.4 hPa WSW 1.3 km/h 11.3 km/h 55.9% 0 mm 1025 W/m2
13:19 35.7 °C 25.2 °C 1012.4 hPa WSW 1.6 km/h 11.3 km/h 54.7% 0 mm 1132 W/m2
13:24 35.6 °C 24.7 °C 1012.4 hPa SW 1 km/h 11.3 km/h 53.6% 0 mm 253 W/m2
13:29 35.2 °C 24.4 °C 1012.4 hPa WSW 1.3 km/h 19.3 km/h 53.9% 0 mm 195 W/m2
13:34 34.8 °C 24.6 °C 1012.4 hPa SW 0.5 km/h 19.3 km/h 55.4% 0 mm 178 W/m2
13:39 34.4 °C 24.6 °C 1012.4 hPa WSW 1.3 km/h 16.1 km/h 56.4% 0 mm 158 W/m2
13:44 34.1 °C 24.7 °C 1012.4 hPa WSW 4.7 km/h 24.1 km/h 57.9% 0 mm 121 W/m2
13:49 33.6 °C 25.6 °C 1012.8 hPa West 2.4 km/h 24.1 km/h 63.1% 0.76 mm 105 W/m2
13:54 32.5 °C 25.7 °C 1012.8 hPa WSW 2.3 km/h 24.1 km/h 67.6% 1.52 mm 97 W/m2
13:59 31.2 °C 25.1 °C 1012.4 hPa SW 0.2 km/h 24.1 km/h 70.1% 1.52 mm 123 W/m2
14:04 30.1 °C 25 °C 1012.4 hPa Calm   24.1 km/h 74.5% 1.52 mm 146 W/m2
14:09 29.3 °C 25.1 °C 1012.4 hPa Calm     78% 1.52 mm 206 W/m2
14:14 28.8 °C 25.1 °C 1012.4 hPa Calm     80.6% 1.52 mm 206 W/m2
14:19 28.4 °C 25.2 °C 1012.4 hPa Calm     82.8% 1.52 mm 192 W/m2
14:24 28.2 °C 25.2 °C 1012.4 hPa SW 0.2 km/h 3.2 km/h 83.9% 1.52 mm 167 W/m2
14:29 27.9 °C 24.9 °C 1012.4 hPa SW 0.2 km/h 3.2 km/h 83.8% 1.52 mm 165 W/m2
14:34 27.7 °C 24.8 °C 1012.8 hPa Calm   3.2 km/h 84% 1.52 mm 181 W/m2
14:39 27.6 °C 24.8 °C 1012.8 hPa Calm   1.6 km/h 85% 1.52 mm 257 W/m2
14:44 27.4 °C 24.8 °C 1012.8 hPa SSW 0.3 km/h 4.8 km/h 85.5% 1.52 mm 424 W/m2
14:49 27.3 °C 24.7 °C 1012.8 hPa SSW 0.5 km/h 4.8 km/h 85.3% 1.52 mm 355 W/m2
14:54 27.3 °C 24.7 °C 1012.8 hPa SSW 0.5 km/h 4.8 km/h 86% 1.52 mm 478 W/m2
14:58 27.3 °C 24.8 °C 1012.8 hPa SSW 1 km/h 6.4 km/h 86.2% 1.52 mm 647 W/m2
Hartford County Weather
Compliments of Weather Underground - 2 mb